Time;durP1;ratioP1;P1;durP2;ratioP2;P2;SDS_P1;SDS_P2;PMS_P1;PMS_P2;Temp;Humidity;BMP_temperature;BMP_pressure;BME280_temperature;BME280_humidity;BME280_pressure;Samples;Min_cycle;Max_cycle;Signal;HPM_P1;HPM_P2
2021/01/27 00:00:59;;;;;;;0.77;0.53;;;5.00;99.90;;;;;;4989521;28;20207;-89
2021/01/27 00:03:30;;;;;;;0.50;0.50;;;5.00;99.90;;;;;;4989852;28;20586;-89
2021/01/27 00:06:01;;;;;;;0.60;0.43;;;5.00;99.90;;;;;;4990209;28;20210;-89
2021/01/27 00:08:32;;;;;;;1.03;0.70;;;5.00;99.90;;;;;;4989741;28;20231;-89
2021/01/27 00:11:03;;;;;;;0.60;0.60;;;5.00;99.90;;;;;;4988284;28;20234;-89
2021/01/27 00:13:39;;;;;;;0.80;0.70;;;4.90;99.90;;;;;;4991357;28;20203;-89
2021/01/27 00:16:10;;;;;;;0.60;0.60;;;5.00;99.90;;;;;;5008858;28;20289;-89
2021/01/27 00:18:42;;;;;;;1.10;0.90;;;4.90;99.90;;;;;;5008695;28;20203;-89
2021/01/27 00:21:13;;;;;;;0.63;0.63;;;4.90;99.90;;;;;;5008100;28;20298;-86
2021/01/27 00:23:46;;;;;;;0.70;0.70;;;4.90;99.90;;;;;;4993348;28;20226;-88
2021/01/27 00:26:17;;;;;;;0.80;0.73;;;4.80;99.90;;;;;;4988435;28;20575;-86
2021/01/27 00:28:50;;;;;;;0.90;0.80;;;4.80;99.90;;;;;;4990118;28;20293;-89
2021/01/27 00:31:21;;;;;;;1.80;1.00;;;4.80;99.90;;;;;;5083292;22;20396;-91
2021/01/27 00:34:02;;;;;;;0.90;0.80;;;4.80;99.90;;;;;;5050835;28;20229;-90
2021/01/27 00:36:36;;;;;;;0.80;0.80;;;4.80;99.90;;;;;;5047714;28;20278;-92
2021/01/27 00:39:07;;;;;;;1.00;0.77;;;4.80;99.90;;;;;;5048175;28;20291;-90
2021/01/27 00:41:39;;;;;;;1.10;0.80;;;4.70;99.90;;;;;;5069292;28;20231;-90
2021/01/27 00:44:11;;;;;;;1.23;0.90;;;4.70;99.90;;;;;;5076653;28;20208;-87
2021/01/27 00:46:44;;;;;;;1.00;0.90;;;4.70;99.90;;;;;;5076205;28;20188;-92
2021/01/27 00:49:14;;;;;;;1.50;1.00;;;4.70;99.90;;;;;;4720465;28;10000100;-90
2021/01/27 00:51:45;;;;;;;1.10;0.83;;;4.70;99.90;;;;;;5067782;28;20270;-91
2021/01/27 00:54:17;;;;;;;0.80;0.70;;;4.70;99.90;;;;;;5048572;28;20228;-91
2021/01/27 00:56:49;;;;;;;1.00;0.90;;;4.70;99.90;;;;;;5048544;28;20472;-90
2021/01/27 00:59:22;;;;;;;0.93;0.90;;;4.70;99.90;;;;;;5052696;28;20208;-92
2021/01/27 01:01:53;;;;;;;1.53;0.90;;;4.70;99.90;;;;;;5070058;28;20260;-89
2021/01/27 01:04:24;;;;;;;1.80;1.10;;;4.70;99.90;;;;;;5070937;28;20211;-93
2021/01/27 01:06:56;;;;;;;1.73;1.07;;;4.70;99.90;;;;;;5064326;28;20261;-94
2021/01/27 01:15:32;;;;;;;2.20;1.40;;;4.70;99.90;;;;;;5071693;28;20208;-94
2021/01/27 01:18:06;;;;;;;2.23;1.47;;;4.70;99.90;;;;;;5065410;28;20331;-88
2021/01/27 01:20:43;;;;;;;1.37;1.23;;;4.70;99.90;;;;;;5070580;28;20207;-89
2021/01/27 01:23:15;;;;;;;1.63;1.07;;;4.70;99.90;;;;;;5077381;28;20199;-89
2021/01/27 01:25:47;;;;;;;1.90;0.83;;;4.70;99.90;;;;;;5064618;28;20196;-89
2021/01/27 01:28:19;;;;;;;2.57;1.27;;;4.80;99.90;;;;;;5068001;28;20296;-90
2021/01/27 01:30:54;;;;;;;1.37;0.90;;;4.80;99.90;;;;;;5057385;28;20203;-89
2021/01/27 01:33:29;;;;;;;1.20;0.93;;;4.80;99.90;;;;;;5066844;28;20235;-91
2021/01/27 01:36:01;;;;;;;2.07;1.30;;;4.80;99.90;;;;;;5062266;28;20188;-90
2021/01/27 01:38:33;;;;;;;2.77;1.67;;;4.80;99.90;;;;;;5054422;28;20209;-89
2021/01/27 01:41:09;;;;;;;7.63;2.63;;;4.80;99.90;;;;;;5051367;28;20205;-89
2021/01/27 01:43:56;;;;;;;2.40;1.40;;;4.80;99.90;;;;;;5049355;28;20232;-90
2021/01/27 01:46:45;;;;;;;2.10;1.10;;;4.80;99.90;;;;;;5055201;28;20201;-90
2021/01/27 01:49:16;;;;;;;1.30;1.00;;;4.80;99.90;;;;;;5067697;28;20266;-89
2021/01/27 01:51:55;;;;;;;1.30;1.03;;;4.80;99.90;;;;;;5049325;28;20255;-90
2021/01/27 01:54:33;;;;;;;2.43;1.00;;;4.80;99.90;;;;;;5059297;28;20207;-90
2021/01/27 01:57:11;;;;;;;1.60;0.97;;;4.80;99.90;;;;;;5067864;28;20222;-89
2021/01/27 01:59:46;;;;;;;2.43;1.17;;;4.80;99.90;;;;;;5067780;28;20222;-89
2021/01/27 02:02:19;;;;;;;2.33;1.10;;;4.80;99.90;;;;;;5064369;28;20208;-88
2021/01/27 02:04:55;;;;;;;1.43;0.90;;;4.80;99.90;;;;;;5066409;28;20222;-90
2021/01/27 02:07:28;;;;;;;0.87;0.80;;;4.80;99.90;;;;;;5068224;28;20231;-90
2021/01/27 02:09:58;;;;;;;2.07;1.10;;;4.80;99.90;;;;;;5053387;28;20216;-91
2021/01/27 02:12:43;;;;;;;2.07;0.87;;;4.80;99.90;;;;;;5061106;28;20208;-91
2021/01/27 02:15:32;;;;;;;4.23;1.00;;;4.80;99.90;;;;;;5066237;28;20212;-89
2021/01/27 02:18:14;;;;;;;1.07;0.80;;;4.80;99.90;;;;;;5060277;28;20209;-90
2021/01/27 02:21:07;;;;;;;1.30;1.10;;;4.80;99.90;;;;;;5046327;28;20231;-89
2021/01/27 02:24:02;;;;;;;4.13;1.10;;;4.80;99.90;;;;;;5049452;28;20205;-88
2021/01/27 02:26:56;;;;;;;1.10;0.87;;;4.80;99.90;;;;;;5046703;28;20205;-89
2021/01/27 02:30:04;;;;;;;1.53;1.07;;;4.90;99.90;;;;;;5056147;28;20216;-91
2021/01/27 02:33:05;;;;;;;4.77;0.97;;;4.90;99.90;;;;;;5061942;28;20330;-92
2021/01/27 02:35:40;;;;;;;1.20;0.90;;;4.90;99.90;;;;;;5022741;28;20215;-90
2021/01/27 02:38:17;;;;;;;1.97;1.37;;;4.90;99.90;;;;;;5060768;28;20288;-89
2021/01/27 02:40:53;;;;;;;1.20;0.90;;;4.90;99.90;;;;;;5068367;28;20207;-91
2021/01/27 02:43:27;;;;;;;1.07;0.80;;;4.90;99.90;;;;;;5057504;28;20201;-92
2021/01/27 02:46:03;;;;;;;1.07;0.87;;;4.90;99.90;;;;;;5072069;28;20288;-92
2021/01/27 02:48:42;;;;;;;1.27;0.90;;;5.00;99.90;;;;;;5069536;28;20296;-90
2021/01/27 02:51:18;;;;;;;0.80;0.70;;;5.00;99.90;;;;;;5063031;28;20252;-90
2021/01/27 02:53:55;;;;;;;1.17;0.80;;;5.00;99.90;;;;;;5053380;28;20209;-91
2021/01/27 02:56:36;;;;;;;1.33;0.90;;;5.00;99.90;;;;;;5062507;28;20635;-89
2021/01/27 02:59:12;;;;;;;1.50;1.00;;;5.00;99.90;;;;;;5070635;28;20200;-87
2021/01/27 03:01:47;;;;;;;3.00;0.80;;;5.00;99.90;;;;;;5066397;28;20205;-89
2021/01/27 03:04:24;;;;;;;0.80;0.70;;;5.00;99.90;;;;;;5062070;28;20211;-90
2021/01/27 03:06:59;;;;;;;1.10;0.80;;;5.10;99.90;;;;;;5056127;28;20231;-90
2021/01/27 03:09:38;;;;;;;1.00;0.80;;;5.10;99.90;;;;;;5059127;28;20228;-90
2021/01/27 03:12:09;;;;;;;1.03;0.90;;;5.10;99.90;;;;;;5072666;28;20188;-90
2021/01/27 03:14:40;;;;;;;1.10;0.90;;;5.10;99.90;;;;;;5072234;28;20208;-89
2021/01/27 03:17:13;;;;;;;0.90;0.70;;;5.10;99.90;;;;;;5074781;28;20251;-89
2021/01/27 03:19:53;;;;;;;1.33;0.93;;;5.10;99.90;;;;;;5069365;28;20221;-88
2021/01/27 03:22:31;;;;;;;1.47;1.00;;;5.10;99.90;;;;;;5051395;28;20181;-89
2021/01/27 03:25:08;;;;;;;1.37;0.80;;;5.10;99.90;;;;;;5053654;28;20215;-87
2021/01/27 03:27:43;;;;;;;1.13;0.60;;;5.10;99.90;;;;;;5049799;28;20235;-89
2021/01/27 03:30:15;;;;;;;1.43;0.70;;;5.20;99.90;;;;;;5049394;28;20701;-89
2021/01/27 03:32:54;;;;;;;0.87;0.87;;;5.10;99.90;;;;;;5052554;28;20209;-88
2021/01/27 03:35:34;;;;;;;0.93;0.83;;;5.20;99.90;;;;;;5048166;28;20217;-88
2021/01/27 03:38:11;;;;;;;1.37;0.83;;;5.20;99.90;;;;;;5064440;28;20201;-89
2021/01/27 03:40:46;;;;;;;1.53;0.90;;;5.20;99.90;;;;;;5048081;28;20207;-90
2021/01/27 03:43:24;;;;;;;1.50;0.83;;;5.20;99.90;;;;;;5061630;28;20216;-90
2021/01/27 03:46:02;;;;;;;1.03;0.87;;;5.20;99.90;;;;;;5066553;28;20270;-88
2021/01/27 03:48:40;;;;;;;0.80;0.80;;;5.10;99.90;;;;;;5066826;28;20235;-89
2021/01/27 03:51:15;;;;;;;0.90;0.90;;;5.20;99.90;;;;;;5065174;28;20204;-89
2021/01/27 03:54:12;;;;;;;0.90;0.73;;;5.10;99.90;;;;;;5048132;28;20205;-88
2021/01/27 03:56:54;;;;;;;1.53;0.90;;;5.20;99.90;;;;;;5048286;28;20205;-89
2021/01/27 03:59:25;;;;;;;0.70;0.70;;;5.20;99.90;;;;;;5055690;28;20252;-88
2021/01/27 04:01:58;;;;;;;2.07;0.80;;;5.20;99.90;;;;;;5066027;28;20219;-89
2021/01/27 04:04:29;;;;;;;1.17;0.90;;;5.20;99.90;;;;;;5056810;28;20212;-89
2021/01/27 04:07:04;;;;;;;1.23;1.00;;;5.20;99.90;;;;;;5063294;28;20211;-89
2021/01/27 04:09:39;;;;;;;1.03;0.83;;;5.20;99.90;;;;;;5065687;28;20236;-88
2021/01/27 04:12:11;;;;;;;1.27;1.00;;;5.20;99.90;;;;;;5066846;28;20235;-86
2021/01/27 04:14:42;;;;;;;0.90;0.60;;;5.20;99.90;;;;;;5047011;28;20196;-88
2021/01/27 04:17:14;;;;;;;2.77;0.83;;;5.20;99.90;;;;;;5049146;28;20217;-88
2021/01/27 04:19:46;;;;;;;1.57;0.90;;;5.20;99.90;;;;;;5056323;28;20269;-88
2021/01/27 04:22:17;;;;;;;0.80;0.80;;;5.20;99.90;;;;;;5057762;28;20208;-87
2021/01/27 04:24:49;;;;;;;0.83;0.63;;;5.20;99.90;;;;;;5067937;28;20211;-89
2021/01/27 04:27:20;;;;;;;1.57;1.00;;;5.20;99.90;;;;;;5067872;28;20679;-88
2021/01/27 04:29:50;;;;;;;1.73;0.90;;;5.30;99.90;;;;;;5060283;28;20224;-88
2021/01/27 04:32:21;;;;;;;1.47;0.93;;;5.30;99.90;;;;;;5051158;28;20254;-88
2021/01/27 04:34:53;;;;;;;0.90;0.60;;;5.40;99.90;;;;;;5040521;28;20214;-88
2021/01/27 04:37:23;;;;;;;1.17;0.80;;;5.40;99.90;;;;;;5036428;28;20224;-88
2021/01/27 04:39:56;;;;;;;0.50;0.50;;;5.40;99.90;;;;;;5046454;28;20290;-88
2021/01/27 04:42:29;;;;;;;2.20;1.13;;;5.40;99.90;;;;;;5043429;28;20227;-89
2021/01/27 04:45:01;;;;;;;1.23;0.67;;;5.40;99.90;;;;;;5051979;28;20212;-89
2021/01/27 04:47:38;;;;;;;0.77;0.67;;;5.40;99.90;;;;;;5043426;28;20612;-88
2021/01/27 04:50:18;;;;;;;0.67;0.67;;;5.40;99.90;;;;;;5035942;28;20240;-89
2021/01/27 04:53:07;;;;;;;0.80;0.57;;;5.40;99.90;;;;;;5050816;28;20208;-89
2021/01/27 04:56:04;;;;;;;0.60;0.60;;;5.40;99.90;;;;;;5056737;28;20201;-89
2021/01/27 04:58:46;;;;;;;0.70;0.70;;;5.50;99.90;;;;;;5054761;28;20265;-88
2021/01/27 05:01:49;;;;;;;0.53;0.53;;;5.40;99.90;;;;;;5047251;28;20223;-87
2021/01/27 05:04:31;;;;;;;0.80;0.60;;;5.50;99.90;;;;;;5062210;28;20211;-89
2021/01/27 05:07:06;;;;;;;0.73;0.60;;;5.50;99.90;;;;;;5063557;28;20220;-87
2021/01/27 05:09:48;;;;;;;1.00;0.80;;;5.50;99.90;;;;;;5069901;28;20319;-88
2021/01/27 05:12:21;;;;;;;0.67;0.63;;;5.50;99.90;;;;;;5064579;28;20204;-89
2021/01/27 05:14:56;;;;;;;1.20;0.70;;;5.50;99.90;;;;;;5069070;28;20231;-88
2021/01/27 05:17:28;;;;;;;1.70;0.80;;;5.50;99.90;;;;;;5043962;28;20243;-87
2021/01/27 05:20:03;;;;;;;1.00;0.80;;;5.50;99.90;;;;;;5040263;28;20263;-89
2021/01/27 05:22:34;;;;;;;0.70;0.50;;;5.50;99.90;;;;;;5046221;28;20231;-88
2021/01/27 05:25:08;;;;;;;2.53;0.50;;;5.50;99.90;;;;;;5061506;28;20575;-89
2021/01/27 05:27:41;;;;;;;1.00;0.50;;;5.60;99.90;;;;;;5074391;28;20262;-89
2021/01/27 05:30:24;;;;;;;0.70;0.60;;;5.50;99.90;;;;;;5057485;28;20657;-89
2021/01/27 05:32:57;;;;;;;1.10;0.70;;;5.50;99.90;;;;;;5061123;28;20220;-90
2021/01/27 05:35:32;;;;;;;0.60;0.57;;;5.60;99.90;;;;;;5060928;28;20637;-89
2021/01/27 05:38:24;;;;;;;0.77;0.67;;;5.60;99.90;;;;;;5057222;28;20664;-90
2021/01/27 05:41:05;;;;;;;1.47;0.40;;;5.60;99.90;;;;;;5055706;28;20265;-89
2021/01/27 05:43:39;;;;;;;0.80;0.40;;;5.60;99.90;;;;;;5056227;28;20263;-88
2021/01/27 05:46:14;;;;;;;0.43;0.40;;;5.60;99.90;;;;;;5055741;28;20201;-88
2021/01/27 05:48:50;;;;;;;0.60;0.60;;;5.60;99.90;;;;;;5056012;28;20223;-88
2021/01/27 05:51:29;;;;;;;0.60;0.47;;;5.60;99.90;;;;;;5041622;28;20215;-88
2021/01/27 05:54:02;;;;;;;1.37;0.83;;;5.60;99.90;;;;;;5037986;28;20511;-89
2021/01/27 05:56:33;;;;;;;0.90;0.50;;;5.60;99.90;;;;;;5036113;28;20205;-89
2021/01/27 05:59:07;;;;;;;0.60;0.60;;;5.60;99.90;;;;;;5050357;28;20256;-89
2021/01/27 06:01:41;;;;;;;0.40;0.40;;;5.50;99.90;;;;;;5034741;28;20209;-88
2021/01/27 06:04:23;;;;;;;1.17;0.47;;;5.60;99.90;;;;;;5038001;28;20554;-88
2021/01/27 06:07:03;;;;;;;0.60;0.53;;;5.50;99.90;;;;;;5039391;28;20208;-87
2021/01/27 06:09:40;;;;;;;0.40;0.40;;;5.50;99.90;;;;;;5051742;28;20235;-87
2021/01/27 06:12:26;;;;;;;0.60;0.43;;;5.60;99.90;;;;;;5053745;28;20214;-88
2021/01/27 06:15:30;;;;;;;1.83;0.60;;;5.50;99.90;;;;;;5053613;28;20568;-87
2021/01/27 06:18:01;;;;;;;0.80;0.50;;;5.50;99.90;;;;;;5035336;28;20210;-87
2021/01/27 06:20:34;;;;;;;0.60;0.47;;;5.50;99.90;;;;;;5036733;28;20285;-88
2021/01/27 06:23:36;;;;;;;2.03;0.30;;;5.50;99.90;;;;;;5054933;28;20200;-88
2021/01/27 06:26:29;;;;;;;0.50;0.40;;;5.50;99.90;;;;;;5045870;28;20211;-87
2021/01/27 06:29:22;;;;;;;1.73;0.60;;;5.60;99.90;;;;;;5035477;28;20290;-89
2021/01/27 06:32:16;;;;;;;4.50;0.60;;;5.70;99.90;;;;;;5033924;28;20208;-89
2021/01/27 06:35:03;;;;;;;2.80;0.67;;;5.60;99.90;;;;;;5035056;28;20213;-88
2021/01/27 06:37:58;;;;;;;0.67;0.37;;;5.60;99.90;;;;;;5036536;28;20205;-89
2021/01/27 06:40:52;;;;;;;0.70;0.40;;;5.70;99.90;;;;;;5051439;28;20763;-89
2021/01/27 06:43:57;;;;;;;0.40;0.40;;;5.70;99.90;;;;;;5046344;28;20277;-89
2021/01/27 06:46:55;;;;;;;0.70;0.47;;;5.70;99.90;;;;;;5043091;28;20203;-88
2021/01/27 06:49:59;;;;;;;1.57;0.67;;;5.70;99.90;;;;;;5058140;28;20309;-90
2021/01/27 06:53:25;;;;;;;0.57;0.33;;;5.80;99.90;;;;;;5050584;28;20205;-89
2021/01/27 06:56:13;;;;;;;0.60;0.40;;;5.80;99.90;;;;;;4997228;28;20210;-89
2021/01/27 06:59:11;;;;;;;0.53;0.53;;;5.70;99.90;;;;;;4996943;28;20293;-88
2021/01/27 07:02:25;;;;;;;0.50;0.50;;;5.70;99.90;;;;;;5037883;28;20212;-88
2021/01/27 07:05:36;;;;;;;0.60;0.50;;;5.70;99.90;;;;;;5038808;28;20231;-89
2021/01/27 07:08:15;;;;;;;0.57;0.50;;;5.80;99.90;;;;;;4981396;28;20249;-89
2021/01/27 07:10:57;;;;;;;1.77;0.60;;;5.80;99.90;;;;;;4990961;28;20222;-88
2021/01/27 07:14:08;;;;;;;0.50;0.40;;;5.80;99.90;;;;;;4992774;28;20254;-90
2021/01/27 07:16:53;;;;;;;0.70;0.60;;;5.80;99.90;;;;;;4978716;28;20215;-89
2021/01/27 07:20:12;;;;;;;0.70;0.70;;;5.90;99.90;;;;;;5031622;28;20592;-89
2021/01/27 07:22:54;;;;;;;0.60;0.40;;;5.90;99.90;;;;;;5021067;28;20201;-89
2021/01/27 07:25:43;;;;;;;0.93;0.50;;;5.90;99.90;;;;;;5038452;28;20220;-88
2021/01/27 07:28:24;;;;;;;1.30;0.50;;;5.90;99.90;;;;;;5038841;28;20225;-88
2021/01/27 07:31:04;;;;;;;0.43;0.43;;;5.80;99.90;;;;;;5046794;28;20208;-89
2021/01/27 07:33:48;;;;;;;0.53;0.53;;;5.80;99.90;;;;;;5060320;28;20204;-88
2021/01/27 07:36:34;;;;;;;0.70;0.50;;;5.90;99.90;;;;;;5063291;28;20209;-88
2021/01/27 07:39:14;;;;;;;1.20;0.67;;;5.80;99.90;;;;;;5045352;28;20239;-88
2021/01/27 07:41:59;;;;;;;0.40;0.40;;;5.90;99.90;;;;;;5041176;28;20201;-88
2021/01/27 07:44:41;;;;;;;1.00;0.60;;;5.80;99.90;;;;;;5060821;28;20217;-88
2021/01/27 07:47:19;;;;;;;1.20;0.97;;;5.80;99.90;;;;;;5056620;28;20268;-89
2021/01/27 07:49:56;;;;;;;0.70;0.30;;;5.90;99.90;;;;;;5058352;28;20236;-87
2021/01/27 07:52:34;;;;;;;0.80;0.50;;;5.80;99.90;;;;;;5062722;28;20243;-88
2021/01/27 07:55:14;;;;;;;0.77;0.40;;;5.90;99.90;;;;;;5065010;28;20242;-87
2021/01/27 07:57:56;;;;;;;0.70;0.33;;;5.80;99.90;;;;;;5060010;28;20208;-88
2021/01/27 08:00:33;;;;;;;0.47;0.40;;;5.90;99.90;;;;;;5058245;28;20216;-88
2021/01/27 08:03:25;;;;;;;0.30;0.30;;;5.80;99.90;;;;;;5051230;28;20227;-88
2021/01/27 08:06:06;;;;;;;0.70;0.50;;;5.80;99.90;;;;;;5047791;28;20250;-89
2021/01/27 08:08:50;;;;;;;0.60;0.40;;;5.90;99.90;;;;;;5042491;28;20221;-88
2021/01/27 08:11:32;;;;;;;0.50;0.30;;;5.90;99.90;;;;;;5037732;28;20291;-88
2021/01/27 08:14:07;;;;;;;0.53;0.30;;;5.90;99.90;;;;;;5045582;28;20219;-89
2021/01/27 08:16:43;;;;;;;0.40;0.40;;;5.90;99.90;;;;;;5051599;28;20234;-88
2021/01/27 08:19:25;;;;;;;0.50;0.50;;;5.90;99.90;;;;;;5041572;28;20600;-88
2021/01/27 08:22:10;;;;;;;0.73;0.30;;;5.80;99.90;;;;;;5054267;28;20258;-88
2021/01/27 08:25:00;;;;;;;0.40;0.40;;;5.80;99.90;;;;;;5058453;28;20387;-89
2021/01/27 08:27:39;;;;;;;0.40;0.40;;;5.80;99.90;;;;;;5058467;28;20212;-89
2021/01/27 08:30:26;;;;;;;0.30;0.30;;;5.90;99.90;;;;;;5047820;28;20250;-88
2021/01/27 08:33:39;;;;;;;0.20;0.20;;;5.90;99.90;;;;;;5057424;28;20216;-88
2021/01/27 08:36:15;;;;;;;0.30;0.30;;;6.00;99.90;;;;;;5043161;28;20219;-89
2021/01/27 08:38:47;;;;;;;0.37;0.37;;;5.90;99.90;;;;;;5056892;28;20228;-88
2021/01/27 08:41:44;;;;;;;0.30;0.30;;;5.90;99.90;;;;;;5056394;28;20213;-87
2021/01/27 08:44:34;;;;;;;0.40;0.30;;;5.90;99.90;;;;;;5058332;28;20224;-88
2021/01/27 08:47:22;;;;;;;0.70;0.40;;;5.90;99.90;;;;;;5052668;28;20231;-88
2021/01/27 08:49:58;;;;;;;0.50;0.30;;;5.90;99.90;;;;;;5062954;28;20227;-88
2021/01/27 08:52:43;;;;;;;0.30;0.30;;;6.00;99.90;;;;;;5054428;28;20204;-88
2021/01/27 08:55:37;;;;;;;0.40;0.30;;;6.00;99.90;;;;;;5045221;28;20298;-88
2021/01/27 08:58:39;;;;;;;0.43;0.20;;;6.00;99.90;;;;;;5046192;28;20255;-88
2021/01/27 09:01:50;;;;;;;0.30;0.30;;;6.00;99.90;;;;;;5037699;28;20208;-87
2021/01/27 09:04:36;;;;;;;0.33;0.30;;;5.90;99.90;;;;;;5038787;28;20200;-88
2021/01/27 09:07:10;;;;;;;0.40;0.30;;;5.90;99.90;;;;;;5035166;28;20205;-89
2021/01/27 09:09:41;;;;;;;0.80;0.43;;;5.90;99.90;;;;;;5039183;28;20298;-90
2021/01/27 09:12:13;;;;;;;0.70;0.40;;;5.90;99.90;;;;;;5037324;28;20210;-87
2021/01/27 09:14:54;;;;;;;3.30;0.40;;;5.90;99.90;;;;;;5050088;28;20205;-88
2021/01/27 09:17:26;;;;;;;0.40;0.40;;;5.90;99.90;;;;;;5056248;28;20242;-89
2021/01/27 09:19:59;;;;;;;0.90;0.40;;;5.90;99.90;;;;;;5057121;28;20287;-92
2021/01/27 09:22:30;;;;;;;1.07;0.40;;;5.90;99.90;;;;;;5055098;28;20254;-89
2021/01/27 09:25:01;;;;;;;0.63;0.30;;;5.90;99.90;;;;;;5056122;28;20208;-89
2021/01/27 09:27:33;;;;;;;0.40;0.33;;;5.90;99.90;;;;;;5039452;28;20251;-88
2021/01/27 09:30:10;;;;;;;0.40;0.30;;;5.90;99.90;;;;;;5034819;28;20236;-87
2021/01/27 09:32:45;;;;;;;0.40;0.40;;;5.90;99.90;;;;;;5052124;28;20761;-89
2021/01/27 09:35:22;;;;;;;0.37;0.30;;;5.90;99.90;;;;;;5056442;28;20223;-90
2021/01/27 09:37:58;;;;;;;0.93;0.30;;;5.90;99.90;;;;;;5038459;28;20204;-88
2021/01/27 09:40:32;;;;;;;0.53;0.20;;;6.00;99.90;;;;;;5043209;28;20211;-89
2021/01/27 09:43:10;;;;;;;0.20;0.20;;;5.90;99.90;;;;;;5056595;28;20231;-88
2021/01/27 09:45:44;;;;;;;0.50;0.47;;;6.00;99.90;;;;;;5055328;28;20214;-88
2021/01/27 09:48:19;;;;;;;0.60;0.60;;;5.90;99.90;;;;;;5056083;28;20353;-88
2021/01/27 09:50:55;;;;;;;1.60;0.50;;;5.90;99.90;;;;;;5036033;28;20283;-88
2021/01/27 09:53:28;;;;;;;1.13;0.40;;;5.90;99.90;;;;;;5041964;28;20207;-88
2021/01/27 09:56:00;;;;;;;0.40;0.30;;;5.90;99.90;;;;;;5056173;28;20515;-90
2021/01/27 09:58:31;;;;;;;0.40;0.20;;;5.90;99.90;;;;;;5068715;28;20200;-89
2021/01/27 10:01:04;;;;;;;0.30;0.30;;;5.90;99.90;;;;;;5073087;28;20196;-88
2021/01/27 10:03:41;;;;;;;0.23;0.23;;;5.90;99.90;;;;;;5068117;28;20215;-88
2021/01/27 10:06:33;;;;;;;0.20;0.20;;;5.90;99.90;;;;;;5054405;28;20210;-89
2021/01/27 10:09:09;;;;;;;0.20;0.20;;;5.90;99.90;;;;;;5053420;28;20341;-90
2021/01/27 10:12:00;;;;;;;0.30;0.20;;;5.90;99.90;;;;;;5055515;28;20204;-89
2021/01/27 10:14:33;;;;;;;0.20;0.20;;;5.80;99.90;;;;;;5058599;28;20298;-88
2021/01/27 10:17:06;;;;;;;0.47;0.30;;;5.80;99.90;;;;;;5041678;28;20294;-88
2021/01/27 10:19:45;;;;;;;0.30;0.30;;;5.80;99.90;;;;;;5040455;28;20205;-88
2021/01/27 10:22:26;;;;;;;0.40;0.20;;;5.80;99.90;;;;;;5038285;28;20222;-88
2021/01/27 10:24:59;;;;;;;0.20;0.20;;;5.80;99.90;;;;;;5049216;28;20246;-88
2021/01/27 10:27:35;;;;;;;0.37;0.30;;;5.80;99.90;;;;;;5059213;28;20241;-88
2021/01/27 10:30:13;;;;;;;0.20;0.20;;;5.90;99.90;;;;;;5058390;28;20251;-88
2021/01/27 10:32:46;;;;;;;1.83;0.20;;;5.90;99.90;;;;;;5059929;28;20560;-90
2021/01/27 10:35:33;;;;;;;0.20;0.20;;;5.80;99.90;;;;;;5061036;28;20272;-89
2021/01/27 10:38:25;;;;;;;0.30;0.30;;;5.90;99.90;;;;;;5066488;22;20311;-89
2021/01/27 10:41:09;;;;;;;0.30;0.30;;;5.90;99.90;;;;;;5026892;28;20213;-88
2021/01/27 10:43:39;;;;;;;0.60;0.33;;;5.80;99.90;;;;;;5019767;28;20248;-88
2021/01/27 10:46:33;;;;;;;0.20;0.20;;;5.80;99.90;;;;;;5031773;28;20204;-88
2021/01/27 10:49:04;;;;;;;0.63;0.30;;;5.80;99.90;;;;;;5034922;28;20286;-88
2021/01/27 10:51:37;;;;;;;0.30;0.20;;;5.80;99.90;;;;;;5035765;28;20257;-88
2021/01/27 10:54:08;;;;;;;0.20;0.20;;;5.70;99.90;;;;;;5035311;28;20201;-89
2021/01/27 10:56:40;;;;;;;0.20;0.20;;;5.80;99.90;;;;;;5036179;28;20186;-89
2021/01/27 10:59:10;;;;;;;0.40;0.33;;;5.80;99.90;;;;;;5037767;28;20197;-88
2021/01/27 11:01:41;;;;;;;0.10;0.10;;;5.80;99.90;;;;;;5034678;28;20201;-88
2021/01/27 11:04:15;;;;;;;0.37;0.30;;;5.80;99.90;;;;;;5025421;28;20215;-88
2021/01/27 11:06:48;;;;;;;0.20;0.20;;;5.80;99.90;;;;;;5018021;28;20210;-88
2021/01/27 11:09:19;;;;;;;0.20;0.20;;;5.80;99.90;;;;;;5023582;28;20244;-90
2021/01/27 11:11:50;;;;;;;0.30;0.30;;;5.80;99.90;;;;;;5031892;28;20278;-89
2021/01/27 11:14:21;;;;;;;0.20;0.20;;;5.80;99.90;;;;;;5032717;28;20212;-90
2021/01/27 11:16:52;;;;;;;0.47;0.30;;;5.70;99.90;;;;;;5030019;28;20219;-89
2021/01/27 11:19:23;;;;;;;0.57;0.30;;;5.70;99.90;;;;;;5031632;28;20284;-90
2021/01/27 11:21:55;;;;;;;1.50;0.20;;;5.70;99.90;;;;;;5031991;28;20265;-88
2021/01/27 11:24:26;;;;;;;0.20;0.20;;;5.70;99.90;;;;;;5031436;28;20573;-88
2021/01/27 11:26:57;;;;;;;0.30;0.20;;;5.70;99.90;;;;;;5026660;28;20213;-88
2021/01/27 11:29:28;;;;;;;0.23;0.20;;;5.60;99.90;;;;;;5025758;28;20233;-89
2021/01/27 11:31:59;;;;;;;0.20;0.20;;;5.70;99.90;;;;;;5023068;28;20205;-88
2021/01/27 11:34:30;;;;;;;0.20;0.20;;;5.70;99.90;;;;;;5020034;28;20213;-89
2021/01/27 11:37:02;;;;;;;0.50;0.30;;;5.70;99.90;;;;;;5003053;28;20556;-88
2021/01/27 11:39:33;;;;;;;0.20;0.20;;;5.70;99.90;;;;;;5018895;28;20209;-88
2021/01/27 11:42:05;;;;;;;0.30;0.30;;;5.70;99.90;;;;;;5018313;28;20209;-89
2021/01/27 11:44:36;;;;;;;0.20;0.20;;;5.70;99.90;;;;;;5021636;28;20209;-88
2021/01/27 11:47:07;;;;;;;0.23;0.23;;;5.70;99.90;;;;;;5019760;28;20209;-88
2021/01/27 11:49:39;;;;;;;0.20;0.20;;;5.70;99.90;;;;;;5019570;28;20233;-88
2021/01/27 11:52:11;;;;;;;0.20;0.20;;;5.70;99.90;;;;;;5018016;28;20308;-89
2021/01/27 11:54:42;;;;;;;0.30;0.30;;;5.80;99.90;;;;;;5018485;28;20288;-88
2021/01/27 11:57:13;;;;;;;0.20;0.20;;;5.70;99.90;;;;;;5017337;28;20210;-88
2021/01/27 11:59:44;;;;;;;0.10;0.10;;;5.70;99.90;;;;;;5018937;28;20281;-89
2021/01/27 12:02:16;;;;;;;0.13;0.13;;;5.70;99.90;;;;;;5016524;28;20213;-89
2021/01/27 12:04:48;;;;;;;0.10;0.10;;;5.80;99.90;;;;;;5018645;28;20604;-88
2021/01/27 12:07:20;;;;;;;0.20;0.20;;;5.80;99.90;;;;;;4999670;28;20253;-88
2021/01/27 12:09:51;;;;;;;0.20;0.20;;;5.80;99.90;;;;;;4999617;28;20268;-89
2021/01/27 12:12:22;;;;;;;0.30;0.20;;;5.80;99.90;;;;;;5019215;28;20210;-89
2021/01/27 12:14:53;;;;;;;0.20;0.13;;;5.80;99.90;;;;;;5026724;28;20236;-89
2021/01/27 12:17:24;;;;;;;0.20;0.20;;;5.80;99.90;;;;;;5032071;28;20248;-88
2021/01/27 12:19:55;;;;;;;0.10;0.10;;;5.80;99.90;;;;;;5020828;28;20296;-88
2021/01/27 12:22:28;;;;;;;0.70;0.10;;;5.80;99.90;;;;;;5019007;28;20205;-88
2021/01/27 12:24:59;;;;;;;0.97;0.10;;;5.80;99.90;;;;;;5018904;28;20244;-88
2021/01/27 12:27:30;;;;;;;0.20;0.10;;;5.80;99.90;;;;;;5018500;28;20213;-90
2021/01/27 12:30:01;;;;;;;0.20;0.20;;;5.70;99.90;;;;;;5016252;28;20237;-91
2021/01/27 12:32:32;;;;;;;0.20;0.20;;;5.60;99.90;;;;;;5018168;28;20232;-89
2021/01/27 12:35:03;;;;;;;0.20;0.10;;;5.50;99.90;;;;;;5017428;28;20517;-88
2021/01/27 12:37:35;;;;;;;0.10;0.10;;;5.50;99.90;;;;;;5017493;28;20213;-90
2021/01/27 12:40:08;;;;;;;0.23;0.23;;;5.50;99.90;;;;;;5016632;28;20221;-91
2021/01/27 12:42:40;;;;;;;0.40;0.10;;;5.50;99.90;;;;;;5017722;28;20206;-90
2021/01/27 12:45:12;;;;;;;0.10;0.10;;;5.50;99.90;;;;;;5017252;28;20316;-89
2021/01/27 12:47:43;;;;;;;0.30;0.20;;;5.50;99.90;;;;;;5016744;28;20209;-90
2021/01/27 12:50:16;;;;;;;0.30;0.20;;;5.40;99.90;;;;;;5015830;28;20272;-88
2021/01/27 12:52:48;;;;;;;0.23;0.10;;;5.40;99.90;;;;;;5029618;28;20229;-89
2021/01/27 12:55:22;;;;;;;0.10;0.10;;;5.30;99.90;;;;;;5011154;28;20217;-88
2021/01/27 12:57:53;;;;;;;0.20;0.20;;;5.30;99.90;;;;;;5017055;28;20316;-88
2021/01/27 13:00:26;;;;;;;0.60;0.30;;;5.30;99.90;;;;;;5015883;28;20300;-88
2021/01/27 13:02:57;;;;;;;0.23;0.23;;;5.20;99.90;;;;;;5016657;28;20591;-88
2021/01/27 13:05:28;;;;;;;0.20;0.20;;;5.20;99.90;;;;;;5016285;28;20206;-89
2021/01/27 13:08:01;;;;;;;0.20;0.20;;;5.30;99.90;;;;;;5015417;28;20235;-89
2021/01/27 13:10:32;;;;;;;0.50;0.20;;;5.20;99.90;;;;;;5018889;28;20246;-88
2021/01/27 13:13:03;;;;;;;0.20;0.20;;;5.10;99.90;;;;;;5015770;28;20206;-88
2021/01/27 13:15:34;;;;;;;1.10;0.20;;;5.10;99.90;;;;;;5014913;28;20209;-88
2021/01/27 13:18:05;;;;;;;0.40;0.20;;;5.20;99.90;;;;;;5016521;28;20240;-89
2021/01/27 13:20:36;;;;;;;0.20;0.20;;;5.10;99.90;;;;;;5015996;28;20202;-89
2021/01/27 13:23:08;;;;;;;0.20;0.20;;;5.10;99.90;;;;;;5016567;28;20264;-89
2021/01/27 13:25:39;;;;;;;0.20;0.20;;;5.10;99.90;;;;;;5017053;28;20202;-89
2021/01/27 13:28:10;;;;;;;0.20;0.20;;;5.10;99.90;;;;;;5016369;28;20242;-88
2021/01/27 13:30:41;;;;;;;0.20;0.20;;;5.10;99.90;;;;;;5015406;28;20280;-89
2021/01/27 13:33:14;;;;;;;0.20;0.10;;;5.10;99.90;;;;;;5016348;28;20256;-89
2021/01/27 13:35:50;;;;;;;0.20;0.17;;;5.00;99.90;;;;;;5016291;28;20205;-89
2021/01/27 13:38:22;;;;;;;0.80;0.30;;;5.00;99.90;;;;;;5016547;28;20228;-89
2021/01/27 13:40:54;;;;;;;1.60;0.20;;;5.00;99.90;;;;;;5014442;28;20264;-89
2021/01/27 13:43:25;;;;;;;0.20;0.20;;;5.00;99.90;;;;;;5016764;28;20209;-89
2021/01/27 13:45:56;;;;;;;0.20;0.20;;;5.10;99.90;;;;;;5016726;28;20210;-88
2021/01/27 13:48:27;;;;;;;0.70;0.20;;;5.10;99.90;;;;;;5012846;28;20567;-89
2021/01/27 13:50:58;;;;;;;1.03;0.20;;;5.10;99.90;;;;;;5014898;28;20271;-89
2021/01/27 13:53:30;;;;;;;0.40;0.30;;;5.00;99.90;;;;;;5018404;28;20209;-87
2021/01/27 13:56:01;;;;;;;0.20;0.20;;;4.90;99.90;;;;;;5016814;28;20623;-87
2021/01/27 13:58:32;;;;;;;0.20;0.10;;;4.90;99.90;;;;;;5015098;28;20550;-88